sensor_id;sensor_type;location;lat;lon;timestamp;temperature;humidity
13093;DHT22;6612;49.568;11.000;2023-11-18T00:00:54;6.70;69.60
13093;DHT22;6612;49.568;11.000;2023-11-18T00:03:21;6.60;69.60
13093;DHT22;6612;49.568;11.000;2023-11-18T00:05:49;6.60;69.60
13093;DHT22;6612;49.568;11.000;2023-11-18T00:08:16;6.50;69.40
13093;DHT22;6612;49.568;11.000;2023-11-18T00:10:43;6.50;69.50
13093;DHT22;6612;49.568;11.000;2023-11-18T00:13:10;6.40;69.40
13093;DHT22;6612;49.568;11.000;2023-11-18T00:15:37;6.30;69.30
13093;DHT22;6612;49.568;11.000;2023-11-18T00:18:04;6.30;69.30
13093;DHT22;6612;49.568;11.000;2023-11-18T00:20:30;6.20;69.20
13093;DHT22;6612;49.568;11.000;2023-11-18T00:22:59;6.10;69.10
13093;DHT22;6612;49.568;11.000;2023-11-18T00:25:30;6.10;69.10
13093;DHT22;6612;49.568;11.000;2023-11-18T00:27:57;6.00;69.10
13093;DHT22;6612;49.568;11.000;2023-11-18T00:30:24;6.00;69.00
13093;DHT22;6612;49.568;11.000;2023-11-18T00:32:51;6.00;69.10
13093;DHT22;6612;49.568;11.000;2023-11-18T00:35:18;5.90;69.00
13093;DHT22;6612;49.568;11.000;2023-11-18T00:37:44;5.90;69.10
13093;DHT22;6612;49.568;11.000;2023-11-18T00:40:13;5.90;69.20
13093;DHT22;6612;49.568;11.000;2023-11-18T00:42:43;5.80;69.20
13093;DHT22;6612;49.568;11.000;2023-11-18T00:45:10;5.80;69.40
13093;DHT22;6612;49.568;11.000;2023-11-18T00:47:38;5.70;69.70
13093;DHT22;6612;49.568;11.000;2023-11-18T00:50:07;5.70;70.10
13093;DHT22;6612;49.568;11.000;2023-11-18T00:52:34;5.70;70.40
13093;DHT22;6612;49.568;11.000;2023-11-18T00:55:04;5.60;70.40
13093;DHT22;6612;49.568;11.000;2023-11-18T00:57:34;5.60;70.40
13093;DHT22;6612;49.568;11.000;2023-11-18T01:00:01;5.60;70.10
13093;DHT22;6612;49.568;11.000;2023-11-18T01:02:29;5.60;70.00
13093;DHT22;6612;49.568;11.000;2023-11-18T01:04:55;5.60;69.70
13093;DHT22;6612;49.568;11.000;2023-11-18T01:07:22;5.50;69.40
13093;DHT22;6612;49.568;11.000;2023-11-18T01:09:49;5.50;69.20
13093;DHT22;6612;49.568;11.000;2023-11-18T01:12:16;5.50;69.10
13093;DHT22;6612;49.568;11.000;2023-11-18T01:14:44;5.40;68.90
13093;DHT22;6612;49.568;11.000;2023-11-18T01:17:11;5.40;68.80
13093;DHT22;6612;49.568;11.000;2023-11-18T01:19:39;5.30;68.80
13093;DHT22;6612;49.568;11.000;2023-11-18T01:22:06;5.30;68.90
13093;DHT22;6612;49.568;11.000;2023-11-18T01:24:34;5.20;68.80
13093;DHT22;6612;49.568;11.000;2023-11-18T01:27:01;5.20;68.90
13093;DHT22;6612;49.568;11.000;2023-11-18T01:29:28;5.10;68.80
13093;DHT22;6612;49.568;11.000;2023-11-18T01:31:57;5.00;68.70
13093;DHT22;6612;49.568;11.000;2023-11-18T01:34:24;5.00;68.70
13093;DHT22;6612;49.568;11.000;2023-11-18T01:36:51;4.90;68.60
13093;DHT22;6612;49.568;11.000;2023-11-18T01:39:18;5.00;68.90
13093;DHT22;6612;49.568;11.000;2023-11-18T01:41:46;4.90;69.10
13093;DHT22;6612;49.568;11.000;2023-11-18T01:44:14;4.90;69.70
13093;DHT22;6612;49.568;11.000;2023-11-18T01:46:41;4.90;70.30
13093;DHT22;6612;49.568;11.000;2023-11-18T01:49:12;4.90;70.90
13093;DHT22;6612;49.568;11.000;2023-11-18T01:51:41;5.10;71.30
13093;DHT22;6612;49.568;11.000;2023-11-18T01:54:08;4.90;71.10
13093;DHT22;6612;49.568;11.000;2023-11-18T01:56:38;4.90;70.90
13093;DHT22;6612;49.568;11.000;2023-11-18T01:59:05;4.90;70.60
13093;DHT22;6612;49.568;11.000;2023-11-18T02:01:35;4.90;70.20
13093;DHT22;6612;49.568;11.000;2023-11-18T02:04:02;4.90;70.00
13093;DHT22;6612;49.568;11.000;2023-11-18T02:06:34;4.90;69.80
13093;DHT22;6612;49.568;11.000;2023-11-18T02:09:02;4.90;69.80
13093;DHT22;6612;49.568;11.000;2023-11-18T02:11:34;4.90;69.90
13093;DHT22;6612;49.568;11.000;2023-11-18T02:14:09;4.80;69.80
13093;DHT22;6612;49.568;11.000;2023-11-18T02:16:40;4.80;69.70
13093;DHT22;6612;49.568;11.000;2023-11-18T02:19:18;4.80;69.70
13093;DHT22;6612;49.568;11.000;2023-11-18T02:21:48;4.80;69.80
13093;DHT22;6612;49.568;11.000;2023-11-18T02:24:25;4.80;70.20
13093;DHT22;6612;49.568;11.000;2023-11-18T02:26:56;4.70;70.40
13093;DHT22;6612;49.568;11.000;2023-11-18T02:29:24;4.80;71.10
13093;DHT22;6612;49.568;11.000;2023-11-18T02:31:53;4.80;71.60
13093;DHT22;6612;49.568;11.000;2023-11-18T02:34:27;4.80;72.00
13093;DHT22;6612;49.568;11.000;2023-11-18T02:36:57;4.80;72.30
13093;DHT22;6612;49.568;11.000;2023-11-18T02:39:29;4.80;72.70
13093;DHT22;6612;49.568;11.000;2023-11-18T02:42:01;4.80;73.00
13093;DHT22;6612;49.568;11.000;2023-11-18T02:44:30;4.90;73.20
13093;DHT22;6612;49.568;11.000;2023-11-18T02:46:58;5.00;73.20
13093;DHT22;6612;49.568;11.000;2023-11-18T02:49:26;5.00;73.10
13093;DHT22;6612;49.568;11.000;2023-11-18T02:51:53;5.00;72.70
13093;DHT22;6612;49.568;11.000;2023-11-18T02:54:21;5.00;72.30
13093;DHT22;6612;49.568;11.000;2023-11-18T02:56:48;5.00;72.00
13093;DHT22;6612;49.568;11.000;2023-11-18T02:59:17;5.10;71.80
13093;DHT22;6612;49.568;11.000;2023-11-18T03:01:43;5.00;71.50
13093;DHT22;6612;49.568;11.000;2023-11-18T03:04:11;4.90;71.50
13093;DHT22;6612;49.568;11.000;2023-11-18T03:06:39;5.00;71.60
13093;DHT22;6612;49.568;11.000;2023-11-18T03:09:07;4.90;71.30
13093;DHT22;6612;49.568;11.000;2023-11-18T03:11:36;4.90;71.10
13093;DHT22;6612;49.568;11.000;2023-11-18T03:14:03;4.90;71.00
13093;DHT22;6612;49.568;11.000;2023-11-18T03:16:36;4.90;71.10
13093;DHT22;6612;49.568;11.000;2023-11-18T03:19:03;4.90;71.20
13093;DHT22;6612;49.568;11.000;2023-11-18T03:21:30;4.80;71.60
13093;DHT22;6612;49.568;11.000;2023-11-18T03:23:57;4.80;71.90
13093;DHT22;6612;49.568;11.000;2023-11-18T03:26:24;4.80;72.10
13093;DHT22;6612;49.568;11.000;2023-11-18T03:28:52;4.90;72.30
13093;DHT22;6612;49.568;11.000;2023-11-18T03:31:19;4.80;72.30
13093;DHT22;6612;49.568;11.000;2023-11-18T03:33:47;4.90;72.40
13093;DHT22;6612;49.568;11.000;2023-11-18T03:36:14;4.90;72.30
13093;DHT22;6612;49.568;11.000;2023-11-18T03:38:43;4.90;72.70
13093;DHT22;6612;49.568;11.000;2023-11-18T03:41:10;4.90;72.60
13093;DHT22;6612;49.568;11.000;2023-11-18T03:43:38;4.90;72.70
13093;DHT22;6612;49.568;11.000;2023-11-18T03:46:05;4.90;72.70
13093;DHT22;6612;49.568;11.000;2023-11-18T03:48:33;4.90;72.70
13093;DHT22;6612;49.568;11.000;2023-11-18T03:51:03;5.00;72.90
13093;DHT22;6612;49.568;11.000;2023-11-18T03:53:30;4.90;72.80
13093;DHT22;6612;49.568;11.000;2023-11-18T03:55:59;4.90;73.10
13093;DHT22;6612;49.568;11.000;2023-11-18T03:58:26;5.00;73.20
13093;DHT22;6612;49.568;11.000;2023-11-18T04:00:53;5.00;73.20
13093;DHT22;6612;49.568;11.000;2023-11-18T04:03:20;5.00;73.00
13093;DHT22;6612;49.568;11.000;2023-11-18T04:05:47;5.00;72.70
13093;DHT22;6612;49.568;11.000;2023-11-18T04:08:15;5.00;72.50
13093;DHT22;6612;49.568;11.000;2023-11-18T04:10:43;5.00;72.30
13093;DHT22;6612;49.568;11.000;2023-11-18T04:13:09;5.00;72.20
13093;DHT22;6612;49.568;11.000;2023-11-18T04:15:36;5.00;71.90
13093;DHT22;6612;49.568;11.000;2023-11-18T04:18:04;5.10;71.70
13093;DHT22;6612;49.568;11.000;2023-11-18T04:20:32;5.00;71.20
13093;DHT22;6612;49.568;11.000;2023-11-18T04:22:59;4.90;70.80
13093;DHT22;6612;49.568;11.000;2023-11-18T04:25:27;4.90;70.40
13093;DHT22;6612;49.568;11.000;2023-11-18T04:27:54;4.80;70.00
13093;DHT22;6612;49.568;11.000;2023-11-18T04:30:21;4.80;69.90
13093;DHT22;6612;49.568;11.000;2023-11-18T04:32:48;4.80;69.70
13093;DHT22;6612;49.568;11.000;2023-11-18T04:35:17;4.70;69.50
13093;DHT22;6612;49.568;11.000;2023-11-18T04:37:44;4.60;69.30
13093;DHT22;6612;49.568;11.000;2023-11-18T04:40:11;4.60;69.30
13093;DHT22;6612;49.568;11.000;2023-11-18T04:42:40;4.50;69.20
13093;DHT22;6612;49.568;11.000;2023-11-18T04:45:08;4.50;69.10
13093;DHT22;6612;49.568;11.000;2023-11-18T04:47:36;4.40;69.10
13093;DHT22;6612;49.568;11.000;2023-11-18T04:50:04;4.40;69.10
13093;DHT22;6612;49.568;11.000;2023-11-18T04:52:31;4.30;68.90
13093;DHT22;6612;49.568;11.000;2023-11-18T04:55:00;4.30;68.80
13093;DHT22;6612;49.568;11.000;2023-11-18T04:57:27;4.30;68.80
13093;DHT22;6612;49.568;11.000;2023-11-18T04:59:56;4.30;68.80
13093;DHT22;6612;49.568;11.000;2023-11-18T05:02:23;4.20;68.60
13093;DHT22;6612;49.568;11.000;2023-11-18T05:04:50;4.20;68.50
13093;DHT22;6612;49.568;11.000;2023-11-18T05:07:16;4.10;68.40
13093;DHT22;6612;49.568;11.000;2023-11-18T05:09:44;4.10;68.40
13093;DHT22;6612;49.568;11.000;2023-11-18T05:12:10;4.00;68.20
13093;DHT22;6612;49.568;11.000;2023-11-18T05:14:37;3.90;68.10
13093;DHT22;6612;49.568;11.000;2023-11-18T05:17:06;3.90;68.20
13093;DHT22;6612;49.568;11.000;2023-11-18T05:19:34;3.80;68.10
13093;DHT22;6612;49.568;11.000;2023-11-18T05:22:01;3.80;68.20
13093;DHT22;6612;49.568;11.000;2023-11-18T05:24:28;3.80;68.30
13093;DHT22;6612;49.568;11.000;2023-11-18T05:26:55;3.70;68.40
13093;DHT22;6612;49.568;11.000;2023-11-18T05:29:22;3.70;68.60
13093;DHT22;6612;49.568;11.000;2023-11-18T05:31:51;3.60;68.70
13093;DHT22;6612;49.568;11.000;2023-11-18T05:34:19;3.60;68.70
13093;DHT22;6612;49.568;11.000;2023-11-18T05:36:47;3.60;68.90
13093;DHT22;6612;49.568;11.000;2023-11-18T05:39:16;3.50;68.90
13093;DHT22;6612;49.568;11.000;2023-11-18T05:41:45;3.50;69.00
13093;DHT22;6612;49.568;11.000;2023-11-18T05:44:15;3.50;69.10
13093;DHT22;6612;49.568;11.000;2023-11-18T05:46:45;3.50;69.00
13093;DHT22;6612;49.568;11.000;2023-11-18T05:49:13;3.50;69.10
13093;DHT22;6612;49.568;11.000;2023-11-18T05:51:41;3.40;69.20
13093;DHT22;6612;49.568;11.000;2023-11-18T05:54:08;3.40;69.30
13093;DHT22;6612;49.568;11.000;2023-11-18T05:56:36;3.30;69.40
13093;DHT22;6612;49.568;11.000;2023-11-18T05:59:03;3.40;69.70
13093;DHT22;6612;49.568;11.000;2023-11-18T06:01:30;3.40;69.80
13093;DHT22;6612;49.568;11.000;2023-11-18T06:03:57;3.40;69.90
13093;DHT22;6612;49.568;11.000;2023-11-18T06:06:24;3.40;69.90
13093;DHT22;6612;49.568;11.000;2023-11-18T06:08:53;3.40;70.00
13093;DHT22;6612;49.568;11.000;2023-11-18T06:11:20;3.40;70.20
13093;DHT22;6612;49.568;11.000;2023-11-18T06:13:49;3.50;70.60
13093;DHT22;6612;49.568;11.000;2023-11-18T06:16:17;3.50;71.00
13093;DHT22;6612;49.568;11.000;2023-11-18T06:18:47;3.60;71.50
13093;DHT22;6612;49.568;11.000;2023-11-18T06:21:15;3.50;72.00
13093;DHT22;6612;49.568;11.000;2023-11-18T06:23:43;3.60;72.60
13093;DHT22;6612;49.568;11.000;2023-11-18T06:26:11;3.60;73.00
13093;DHT22;6612;49.568;11.000;2023-11-18T06:28:39;3.70;73.40
13093;DHT22;6612;49.568;11.000;2023-11-18T06:31:06;3.80;73.80
13093;DHT22;6612;49.568;11.000;2023-11-18T06:33:38;3.80;74.00
13093;DHT22;6612;49.568;11.000;2023-11-18T06:36:08;3.90;74.20
13093;DHT22;6612;49.568;11.000;2023-11-18T06:38:36;4.00;74.50
13093;DHT22;6612;49.568;11.000;2023-11-18T06:41:04;4.00;74.50
13093;DHT22;6612;49.568;11.000;2023-11-18T06:43:36;4.10;74.70
13093;DHT22;6612;49.568;11.000;2023-11-18T06:46:18;4.20;74.60
13093;DHT22;6612;49.568;11.000;2023-11-18T06:48:46;4.20;74.50
13093;DHT22;6612;49.568;11.000;2023-11-18T06:51:13;4.30;74.20
13093;DHT22;6612;49.568;11.000;2023-11-18T06:53:41;4.30;73.60
13093;DHT22;6612;49.568;11.000;2023-11-18T06:56:09;4.30;73.00
13093;DHT22;6612;49.568;11.000;2023-11-18T06:58:38;4.30;72.60
13093;DHT22;6612;49.568;11.000;2023-11-18T07:01:06;4.30;72.30
13093;DHT22;6612;49.568;11.000;2023-11-18T07:03:33;4.30;72.20
13093;DHT22;6612;49.568;11.000;2023-11-18T07:06:00;4.30;72.10
13093;DHT22;6612;49.568;11.000;2023-11-18T07:08:27;4.30;72.00
13093;DHT22;6612;49.568;11.000;2023-11-18T07:10:54;4.20;72.20
13093;DHT22;6612;49.568;11.000;2023-11-18T07:13:22;4.30;72.60
13093;DHT22;6612;49.568;11.000;2023-11-18T07:15:50;4.30;73.00
13093;DHT22;6612;49.568;11.000;2023-11-18T07:18:19;4.30;73.50
13093;DHT22;6612;49.568;11.000;2023-11-18T07:20:48;4.30;73.90
13093;DHT22;6612;49.568;11.000;2023-11-18T07:23:16;4.30;74.30
13093;DHT22;6612;49.568;11.000;2023-11-18T07:25:43;4.40;74.60
13093;DHT22;6612;49.568;11.000;2023-11-18T07:28:11;4.40;75.00
13093;DHT22;6612;49.568;11.000;2023-11-18T07:30:40;4.50;75.50
13093;DHT22;6612;49.568;11.000;2023-11-18T07:33:09;4.60;76.20
13093;DHT22;6612;49.568;11.000;2023-11-18T07:35:36;4.70;76.60
13093;DHT22;6612;49.568;11.000;2023-11-18T07:38:03;4.70;76.50
13093;DHT22;6612;49.568;11.000;2023-11-18T07:40:32;4.80;76.10
13093;DHT22;6612;49.568;11.000;2023-11-18T07:42:59;4.90;75.60
13093;DHT22;6612;49.568;11.000;2023-11-18T07:45:28;4.90;75.30
13093;DHT22;6612;49.568;11.000;2023-11-18T07:48:03;5.00;75.40
13093;DHT22;6612;49.568;11.000;2023-11-18T07:50:33;5.00;75.50
13093;DHT22;6612;49.568;11.000;2023-11-18T07:53:00;5.10;75.40
13093;DHT22;6612;49.568;11.000;2023-11-18T07:55:27;5.10;75.80
13093;DHT22;6612;49.568;11.000;2023-11-18T07:57:55;5.20;76.20
13093;DHT22;6612;49.568;11.000;2023-11-18T08:00:22;5.30;76.40
13093;DHT22;6612;49.568;11.000;2023-11-18T08:02:49;5.30;76.50
13093;DHT22;6612;49.568;11.000;2023-11-18T08:05:17;5.40;76.80
13093;DHT22;6612;49.568;11.000;2023-11-18T08:07:46;5.50;77.60
13093;DHT22;6612;49.568;11.000;2023-11-18T08:10:13;5.60;78.20
13093;DHT22;6612;49.568;11.000;2023-11-18T08:12:44;5.70;79.00
13093;DHT22;6612;49.568;11.000;2023-11-18T08:15:12;5.80;79.10
13093;DHT22;6612;49.568;11.000;2023-11-18T08:17:39;5.90;79.40
13093;DHT22;6612;49.568;11.000;2023-11-18T08:20:07;6.00;79.50
13093;DHT22;6612;49.568;11.000;2023-11-18T08:22:39;6.10;79.50
13093;DHT22;6612;49.568;11.000;2023-11-18T08:25:08;6.20;79.50
13093;DHT22;6612;49.568;11.000;2023-11-18T08:27:36;6.30;79.00
13093;DHT22;6612;49.568;11.000;2023-11-18T08:30:03;6.40;79.00
13093;DHT22;6612;49.568;11.000;2023-11-18T08:32:31;6.40;78.60
13093;DHT22;6612;49.568;11.000;2023-11-18T08:34:58;6.50;78.00
13093;DHT22;6612;49.568;11.000;2023-11-18T08:37:25;6.50;77.90
13093;DHT22;6612;49.568;11.000;2023-11-18T08:39:53;6.50;77.50
13093;DHT22;6612;49.568;11.000;2023-11-18T08:42:21;6.60;77.50
13093;DHT22;6612;49.568;11.000;2023-11-18T08:44:50;6.70;77.30
13093;DHT22;6612;49.568;11.000;2023-11-18T08:47:17;6.70;77.10
13093;DHT22;6612;49.568;11.000;2023-11-18T08:49:46;6.70;77.00
13093;DHT22;6612;49.568;11.000;2023-11-18T08:52:13;6.80;76.80
13093;DHT22;6612;49.568;11.000;2023-11-18T08:54:40;6.80;77.20
13093;DHT22;6612;49.568;11.000;2023-11-18T08:57:28;6.80;77.20
13093;DHT22;6612;49.568;11.000;2023-11-18T09:00:14;6.90;77.00
13093;DHT22;6612;49.568;11.000;2023-11-18T09:03:02;6.90;76.90
13093;DHT22;6612;49.568;11.000;2023-11-18T09:05:32;6.90;77.30
13093;DHT22;6612;49.568;11.000;2023-11-18T09:08:01;7.00;77.60
13093;DHT22;6612;49.568;11.000;2023-11-18T09:10:31;7.00;77.90
13093;DHT22;6612;49.568;11.000;2023-11-18T09:13:00;7.10;78.20
13093;DHT22;6612;49.568;11.000;2023-11-18T09:15:29;7.20;78.10
13093;DHT22;6612;49.568;11.000;2023-11-18T09:17:56;7.20;78.70
13093;DHT22;6612;49.568;11.000;2023-11-18T09:20:23;7.30;78.80
13093;DHT22;6612;49.568;11.000;2023-11-18T09:22:50;7.30;78.70
13093;DHT22;6612;49.568;11.000;2023-11-18T09:25:21;7.40;78.30
13093;DHT22;6612;49.568;11.000;2023-11-18T09:27:48;7.40;77.90
13093;DHT22;6612;49.568;11.000;2023-11-18T09:30:17;7.50;77.70
13093;DHT22;6612;49.568;11.000;2023-11-18T09:32:44;7.50;77.10
13093;DHT22;6612;49.568;11.000;2023-11-18T09:35:13;7.50;77.00
13093;DHT22;6612;49.568;11.000;2023-11-18T09:37:40;7.60;77.10
13093;DHT22;6612;49.568;11.000;2023-11-18T09:40:09;7.60;77.30
13093;DHT22;6612;49.568;11.000;2023-11-18T09:42:40;7.70;77.90
13093;DHT22;6612;49.568;11.000;2023-11-18T09:45:09;7.70;78.60
13093;DHT22;6612;49.568;11.000;2023-11-18T09:47:43;7.80;79.00
13093;DHT22;6612;49.568;11.000;2023-11-18T09:50:17;7.80;78.30
13093;DHT22;6612;49.568;11.000;2023-11-18T09:52:48;7.90;78.20
13093;DHT22;6612;49.568;11.000;2023-11-18T09:55:24;8.00;78.20
13093;DHT22;6612;49.568;11.000;2023-11-18T09:57:57;8.00;78.10
13093;DHT22;6612;49.568;11.000;2023-11-18T10:00:29;8.10;78.50
13093;DHT22;6612;49.568;11.000;2023-11-18T10:03:00;8.20;79.70
13093;DHT22;6612;49.568;11.000;2023-11-18T10:05:27;8.20;80.00
13093;DHT22;6612;49.568;11.000;2023-11-18T10:07:56;8.30;80.80
13093;DHT22;6612;49.568;11.000;2023-11-18T10:10:24;8.50;81.50
13093;DHT22;6612;49.568;11.000;2023-11-18T10:12:56;8.60;82.00
13093;DHT22;6612;49.568;11.000;2023-11-18T10:15:24;8.70;82.00
13093;DHT22;6612;49.568;11.000;2023-11-18T10:17:53;8.80;82.00
13093;DHT22;6612;49.568;11.000;2023-11-18T10:20:43;8.90;81.60
13093;DHT22;6612;49.568;11.000;2023-11-18T10:23:11;9.10;80.00
13093;DHT22;6612;49.568;11.000;2023-11-18T10:25:45;9.20;81.90
13093;DHT22;6612;49.568;11.000;2023-11-18T10:28:22;9.30;80.80
13093;DHT22;6612;49.568;11.000;2023-11-18T10:30:50;9.40;80.40
13093;DHT22;6612;49.568;11.000;2023-11-18T10:33:17;9.50;81.30
13093;DHT22;6612;49.568;11.000;2023-11-18T10:35:52;9.60;81.30
13093;DHT22;6612;49.568;11.000;2023-11-18T10:38:21;9.70;80.30
13093;DHT22;6612;49.568;11.000;2023-11-18T10:40:52;9.80;81.50
13093;DHT22;6612;49.568;11.000;2023-11-18T10:43:21;9.80;81.10
13093;DHT22;6612;49.568;11.000;2023-11-18T10:45:51;9.90;81.20
13093;DHT22;6612;49.568;11.000;2023-11-18T10:48:18;10.00;79.80
13093;DHT22;6612;49.568;11.000;2023-11-18T10:50:47;10.00;79.70
13093;DHT22;6612;49.568;11.000;2023-11-18T10:53:18;10.10;79.00
13093;DHT22;6612;49.568;11.000;2023-11-18T10:55:45;10.10;78.40
13093;DHT22;6612;49.568;11.000;2023-11-18T10:58:12;10.20;78.60
13093;DHT22;6612;49.568;11.000;2023-11-18T11:00:47;10.20;78.50
13093;DHT22;6612;49.568;11.000;2023-11-18T11:03:15;10.20;77.40
13093;DHT22;6612;49.568;11.000;2023-11-18T11:05:44;10.30;78.70
13093;DHT22;6612;49.568;11.000;2023-11-18T11:08:14;10.30;78.40
13093;DHT22;6612;49.568;11.000;2023-11-18T11:10:43;10.30;77.50
13093;DHT22;6612;49.568;11.000;2023-11-18T11:13:11;10.30;77.50
13093;DHT22;6612;49.568;11.000;2023-11-18T11:15:41;10.30;77.90
13093;DHT22;6612;49.568;11.000;2023-11-18T11:18:12;10.30;77.90
13093;DHT22;6612;49.568;11.000;2023-11-18T11:20:48;10.40;78.00
13093;DHT22;6612;49.568;11.000;2023-11-18T11:23:21;10.40;77.50
13093;DHT22;6612;49.568;11.000;2023-11-18T11:26:02;10.40;78.30
13093;DHT22;6612;49.568;11.000;2023-11-18T11:28:37;10.50;77.30
13093;DHT22;6612;49.568;11.000;2023-11-18T11:31:12;10.50;78.10
13093;DHT22;6612;49.568;11.000;2023-11-18T11:33:49;10.60;77.70
13093;DHT22;6612;49.568;11.000;2023-11-18T11:36:21;10.60;77.90
13093;DHT22;6612;49.568;11.000;2023-11-18T11:38:53;10.60;78.00
13093;DHT22;6612;49.568;11.000;2023-11-18T11:41:23;10.70;78.00
13093;DHT22;6612;49.568;11.000;2023-11-18T11:43:53;10.70;77.80
13093;DHT22;6612;49.568;11.000;2023-11-18T11:46:25;10.80;78.60
13093;DHT22;6612;49.568;11.000;2023-11-18T11:49:00;10.80;78.80
13093;DHT22;6612;49.568;11.000;2023-11-18T11:51:44;10.90;79.10
13093;DHT22;6612;49.568;11.000;2023-11-18T11:54:18;11.00;78.70
13093;DHT22;6612;49.568;11.000;2023-11-18T11:56:49;11.00;78.30
13093;DHT22;6612;49.568;11.000;2023-11-18T11:59:55;11.10;78.30
13093;DHT22;6612;49.568;11.000;2023-11-18T12:02:23;11.20;77.40
13093;DHT22;6612;49.568;11.000;2023-11-18T12:04:56;11.20;79.00
13093;DHT22;6612;49.568;11.000;2023-11-18T12:07:25;11.20;78.40
13093;DHT22;6612;49.568;11.000;2023-11-18T12:09:55;11.30;78.00
13093;DHT22;6612;49.568;11.000;2023-11-18T12:12:25;11.30;77.20
13093;DHT22;6612;49.568;11.000;2023-11-18T12:14:54;11.30;77.00
13093;DHT22;6612;49.568;11.000;2023-11-18T12:17:23;11.30;76.90
13093;DHT22;6612;49.568;11.000;2023-11-18T12:19:54;11.30;76.70
13093;DHT22;6612;49.568;11.000;2023-11-18T12:22:25;11.30;76.60
13093;DHT22;6612;49.568;11.000;2023-11-18T12:28:10;11.30;74.80
13093;DHT22;6612;49.568;11.000;2023-11-18T12:30:39;11.20;75.60
13093;DHT22;6612;49.568;11.000;2023-11-18T12:33:09;11.20;76.30
13093;DHT22;6612;49.568;11.000;2023-11-18T12:36:12;11.20;76.70
13093;DHT22;6612;49.568;11.000;2023-11-18T12:41:49;11.20;76.10
13093;DHT22;6612;49.568;11.000;2023-11-18T12:44:30;11.20;77.30
13093;DHT22;6612;49.568;11.000;2023-11-18T12:47:00;11.20;77.00
13093;DHT22;6612;49.568;11.000;2023-11-18T12:49:37;11.30;77.70
13093;DHT22;6612;49.568;11.000;2023-11-18T12:52:07;11.30;77.10
13093;DHT22;6612;49.568;11.000;2023-11-18T12:54:35;11.40;77.70
13093;DHT22;6612;49.568;11.000;2023-11-18T12:57:05;11.40;78.40
13093;DHT22;6612;49.568;11.000;2023-11-18T12:59:34;11.40;79.00
13093;DHT22;6612;49.568;11.000;2023-11-18T13:02:01;11.50;78.90
13093;DHT22;6612;49.568;11.000;2023-11-18T13:04:30;11.60;79.00
13093;DHT22;6612;49.568;11.000;2023-11-18T13:06:58;11.60;78.90
13093;DHT22;6612;49.568;11.000;2023-11-18T13:09:26;11.70;78.20
13093;DHT22;6612;49.568;11.000;2023-11-18T13:11:56;11.70;77.20
13093;DHT22;6612;49.568;11.000;2023-11-18T13:14:25;11.70;77.00
13093;DHT22;6612;49.568;11.000;2023-11-18T13:16:54;11.80;77.20
13093;DHT22;6612;49.568;11.000;2023-11-18T13:19:25;11.80;76.90
13093;DHT22;6612;49.568;11.000;2023-11-18T13:21:57;11.80;76.80
13093;DHT22;6612;49.568;11.000;2023-11-18T13:24:25;11.80;76.80
13093;DHT22;6612;49.568;11.000;2023-11-18T13:26:53;11.80;76.80
13093;DHT22;6612;49.568;11.000;2023-11-18T13:29:21;11.90;76.50
13093;DHT22;6612;49.568;11.000;2023-11-18T13:31:49;11.90;76.50
13093;DHT22;6612;49.568;11.000;2023-11-18T13:34:18;11.90;75.90
13093;DHT22;6612;49.568;11.000;2023-11-18T13:36:46;11.80;74.00
13093;DHT22;6612;49.568;11.000;2023-11-18T13:39:16;11.80;74.70
13093;DHT22;6612;49.568;11.000;2023-11-18T13:41:43;11.80;73.60
13093;DHT22;6612;49.568;11.000;2023-11-18T13:44:11;11.70;74.50
13093;DHT22;6612;49.568;11.000;2023-11-18T13:46:39;11.70;75.10
13093;DHT22;6612;49.568;11.000;2023-11-18T13:49:06;11.70;76.30
13093;DHT22;6612;49.568;11.000;2023-11-18T13:51:35;11.70;75.70
13093;DHT22;6612;49.568;11.000;2023-11-18T13:54:03;11.70;74.80
13093;DHT22;6612;49.568;11.000;2023-11-18T13:56:30;11.70;74.70
13093;DHT22;6612;49.568;11.000;2023-11-18T13:58:58;11.70;74.90
13093;DHT22;6612;49.568;11.000;2023-11-18T14:01:25;11.70;74.90
13093;DHT22;6612;49.568;11.000;2023-11-18T14:03:53;11.70;75.00
13093;DHT22;6612;49.568;11.000;2023-11-18T14:06:22;11.70;75.00
13093;DHT22;6612;49.568;11.000;2023-11-18T14:08:50;11.60;74.70
13093;DHT22;6612;49.568;11.000;2023-11-18T14:11:17;11.70;74.80
13093;DHT22;6612;49.568;11.000;2023-11-18T14:13:45;11.70;75.10
13093;DHT22;6612;49.568;11.000;2023-11-18T14:16:12;11.60;75.00
13093;DHT22;6612;49.568;11.000;2023-11-18T14:18:42;11.60;74.90
13093;DHT22;6612;49.568;11.000;2023-11-18T14:21:09;11.60;75.00
13093;DHT22;6612;49.568;11.000;2023-11-18T14:23:36;11.60;75.10
13093;DHT22;6612;49.568;11.000;2023-11-18T14:26:06;11.60;75.20
13093;DHT22;6612;49.568;11.000;2023-11-18T14:28:34;11.50;74.70
13093;DHT22;6612;49.568;11.000;2023-11-18T14:31:01;11.60;75.00
13093;DHT22;6612;49.568;11.000;2023-11-18T14:33:30;11.50;74.70
13093;DHT22;6612;49.568;11.000;2023-11-18T14:35:59;11.50;74.40
13093;DHT22;6612;49.568;11.000;2023-11-18T14:38:26;11.50;74.20
13093;DHT22;6612;49.568;11.000;2023-11-18T14:40:53;11.50;74.10
13093;DHT22;6612;49.568;11.000;2023-11-18T14:43:22;11.40;74.20
13093;DHT22;6612;49.568;11.000;2023-11-18T14:45:48;11.40;73.90
13093;DHT22;6612;49.568;11.000;2023-11-18T14:48:15;11.40;74.30
13093;DHT22;6612;49.568;11.000;2023-11-18T14:50:42;11.40;74.40
13093;DHT22;6612;49.568;11.000;2023-11-18T14:53:10;11.40;74.10
13093;DHT22;6612;49.568;11.000;2023-11-18T14:55:37;11.30;74.10
13093;DHT22;6612;49.568;11.000;2023-11-18T14:58:04;11.30;74.10
13093;DHT22;6612;49.568;11.000;2023-11-18T15:00:34;11.30;74.00
13093;DHT22;6612;49.568;11.000;2023-11-18T15:03:01;11.30;73.40
13093;DHT22;6612;49.568;11.000;2023-11-18T15:05:28;11.30;73.60
13093;DHT22;6612;49.568;11.000;2023-11-18T15:07:57;11.20;73.70
13093;DHT22;6612;49.568;11.000;2023-11-18T15:10:25;11.20;73.50
13093;DHT22;6612;49.568;11.000;2023-11-18T15:12:53;11.20;73.90
13093;DHT22;6612;49.568;11.000;2023-11-18T15:15:25;11.10;73.20
13093;DHT22;6612;49.568;11.000;2023-11-18T15:17:59;11.10;73.20
13093;DHT22;6612;49.568;11.000;2023-11-18T15:20:29;11.10;73.00
13093;DHT22;6612;49.568;11.000;2023-11-18T15:22:56;11.10;73.50
13093;DHT22;6612;49.568;11.000;2023-11-18T15:25:23;11.00;73.50
13093;DHT22;6612;49.568;11.000;2023-11-18T15:27:50;11.00;73.60
13093;DHT22;6612;49.568;11.000;2023-11-18T15:30:17;11.00;73.60
13093;DHT22;6612;49.568;11.000;2023-11-18T15:32:45;11.00;73.80
13093;DHT22;6612;49.568;11.000;2023-11-18T15:35:13;11.00;73.60
13093;DHT22;6612;49.568;11.000;2023-11-18T15:37:43;11.00;73.50
13093;DHT22;6612;49.568;11.000;2023-11-18T15:40:13;11.00;73.90
13093;DHT22;6612;49.568;11.000;2023-11-18T15:42:41;10.90;73.80
13093;DHT22;6612;49.568;11.000;2023-11-18T15:45:09;10.90;73.80
13093;DHT22;6612;49.568;11.000;2023-11-18T15:47:37;10.90;73.90
13093;DHT22;6612;49.568;11.000;2023-11-18T15:50:05;10.90;74.00
13093;DHT22;6612;49.568;11.000;2023-11-18T15:52:34;10.90;74.00
13093;DHT22;6612;49.568;11.000;2023-11-18T15:55:02;10.90;74.10
13093;DHT22;6612;49.568;11.000;2023-11-18T15:57:37;10.90;74.40